Time;durP1;ratioP1;P1;durP2;ratioP2;P2;SDS_P1;SDS_P2;PMS_P1;PMS_P2;Temp;Humidity;BMP_temperature;BMP_pressure;BME280_temperature;BME280_humidity;BME280_pressure;Samples;Min_cycle;Max_cycle;Signal;HPM_P1;HPM_P2
2021/04/13 00:01:30;;;;;;;19.05;11.40;;;2.10;99.90;;;;;;5133570;27;20236;-66
2021/04/13 00:04:03;;;;;;;22.65;13.35;;;2.00;99.90;;;;;;5128546;27;20578;-67
2021/04/13 00:06:33;;;;;;;19.45;12.85;;;2.00;99.90;;;;;;5114021;28;20209;-66
2021/04/13 00:09:07;;;;;;;19.00;12.93;;;2.00;99.90;;;;;;5113708;27;20288;-69
2021/04/13 00:11:34;;;;;;;23.48;13.50;;;2.00;99.90;;;;;;5130589;27;20229;-67
2021/04/13 00:14:00;;;;;;;21.75;12.82;;;1.90;99.90;;;;;;5134023;27;20624;-66
2021/04/13 00:16:30;;;;;;;19.95;13.07;;;1.80;99.90;;;;;;5134214;27;20213;-68
2021/04/13 00:18:58;;;;;;;22.50;13.27;;;1.80;99.90;;;;;;5134614;27;20290;-69
2021/04/13 00:21:28;;;;;;;22.08;13.73;;;1.80;99.90;;;;;;5133996;27;20222;-67
2021/04/13 00:24:03;;;;;;;22.55;13.05;;;1.80;99.90;;;;;;5133567;27;20226;-67
2021/04/13 00:26:31;;;;;;;23.92;13.65;;;1.80;99.90;;;;;;5134176;27;20289;-66
2021/04/13 00:29:01;;;;;;;27.95;14.60;;;1.80;99.90;;;;;;5133906;27;20207;-67
2021/04/13 00:31:40;;;;;;;22.10;13.60;;;1.80;99.90;;;;;;5134732;27;20690;-67
2021/04/13 00:34:12;;;;;;;22.10;13.93;;;1.80;99.90;;;;;;5133207;27;20697;-67
2021/04/13 00:36:39;;;;;;;21.45;12.30;;;1.70;99.90;;;;;;5126948;27;20330;-68
2021/04/13 00:39:19;;;;;;;23.95;15.30;;;1.70;99.90;;;;;;5129521;27;20284;-67
2021/04/13 00:41:50;;;;;;;21.25;13.80;;;1.70;99.90;;;;;;5134521;27;20283;-67
2021/04/13 00:44:19;;;;;;;23.05;14.55;;;1.60;99.90;;;;;;5115760;27;20287;-68
2021/04/13 00:46:49;;;;;;;24.83;13.82;;;1.60;99.90;;;;;;5112778;28;20729;-67
2021/04/13 00:49:19;;;;;;;22.45;13.27;;;1.50;99.90;;;;;;5131936;27;20683;-67
2021/04/13 00:51:49;;;;;;;23.40;14.57;;;1.50;99.90;;;;;;5133815;27;20324;-68
2021/04/13 00:54:26;;;;;;;23.45;15.18;;;1.50;99.90;;;;;;5133466;27;20277;-67
2021/04/13 00:56:53;;;;;;;20.88;12.57;;;1.50;99.90;;;;;;5133117;27;20204;-67
2021/04/13 00:59:22;;;;;;;21.15;13.20;;;1.60;99.90;;;;;;5133787;27;20240;-67
2021/04/13 01:01:53;;;;;;;20.35;13.63;;;1.60;99.90;;;;;;5133543;27;20629;-67
2021/04/13 01:04:27;;;;;;;23.80;14.40;;;1.50;99.90;;;;;;5132737;27;20278;-67
2021/04/13 01:07:01;;;;;;;25.23;15.00;;;1.50;99.90;;;;;;5133724;27;20216;-67
2021/04/13 01:09:29;;;;;;;19.88;12.75;;;1.50;99.90;;;;;;5133523;27;20204;-67
2021/04/13 01:12:03;;;;;;;22.90;13.45;;;1.40;99.90;;;;;;5133431;27;20204;-67
2021/04/13 01:14:31;;;;;;;25.92;13.25;;;1.50;99.90;;;;;;5132825;27;20287;-67
2021/04/13 01:17:00;;;;;;;22.30;12.35;;;1.40;99.90;;;;;;5133365;27;20210;-67
2021/04/13 01:19:40;;;;;;;21.40;13.07;;;1.40;99.90;;;;;;5133527;27;20297;-66
2021/04/13 01:22:17;;;;;;;22.85;12.00;;;1.30;99.90;;;;;;5132198;27;20202;-68
2021/04/13 01:24:50;;;;;;;20.65;12.77;;;1.30;99.90;;;;;;5133206;27;20190;-66
2021/04/13 01:27:17;;;;;;;24.92;13.20;;;1.30;99.90;;;;;;5133208;27;20659;-67
2021/04/13 01:29:44;;;;;;;20.77;12.23;;;1.30;99.90;;;;;;5133335;27;20224;-68
2021/04/13 01:32:13;;;;;;;22.60;12.70;;;1.30;99.90;;;;;;5132709;27;20662;-67
2021/04/13 01:35:02;;;;;;;20.40;12.88;;;1.20;99.90;;;;;;5132854;27;21987;-66
2021/04/13 01:37:42;;;;;;;25.90;13.85;;;1.20;99.90;;;;;;5132837;27;20200;-67
2021/04/13 01:40:20;;;;;;;20.17;12.27;;;1.20;99.90;;;;;;5134613;27;20229;-67
2021/04/13 01:42:49;;;;;;;21.02;12.65;;;1.20;99.90;;;;;;5112982;28;20297;-67
2021/04/13 01:45:18;;;;;;;24.45;13.52;;;1.20;99.90;;;;;;5112457;28;20582;-67
2021/04/13 01:47:46;;;;;;;24.73;14.60;;;1.10;99.90;;;;;;5112535;28;20242;-68
2021/04/13 01:50:18;;;;;;;27.75;14.23;;;1.10;99.90;;;;;;5129848;27;20195;-66
2021/04/13 01:52:47;;;;;;;23.00;13.95;;;1.10;99.90;;;;;;5112566;28;20297;-67
2021/04/13 01:55:18;;;;;;;19.98;12.38;;;1.10;99.90;;;;;;5122246;27;20251;-67
2021/04/13 01:57:52;;;;;;;24.60;12.93;;;1.10;99.90;;;;;;5129162;27;20284;-67
2021/04/13 02:00:25;;;;;;;21.98;14.30;;;1.10;99.90;;;;;;5131128;27;20306;-67
2021/04/13 02:02:57;;;;;;;22.45;13.43;;;1.10;99.90;;;;;;5131679;27;20208;-66
2021/04/13 02:05:29;;;;;;;24.63;14.35;;;1.10;99.90;;;;;;5132386;27;20645;-67
2021/04/13 02:08:03;;;;;;;24.50;15.10;;;1.00;99.90;;;;;;5132990;27;20218;-67
2021/04/13 02:10:39;;;;;;;27.27;14.25;;;1.10;99.90;;;;;;5131707;28;20204;-68
2021/04/13 02:13:08;;;;;;;20.70;12.23;;;1.00;99.90;;;;;;5122075;28;20763;-66
2021/04/13 02:15:43;;;;;;;22.13;13.32;;;1.00;99.90;;;;;;5111867;28;20236;-66
2021/04/13 02:18:14;;;;;;;31.45;14.50;;;1.00;99.90;;;;;;5124572;28;20299;-67
2021/04/13 02:20:45;;;;;;;22.38;12.98;;;1.00;99.90;;;;;;5131907;27;20852;-67
2021/04/13 02:23:12;;;;;;;25.52;13.90;;;1.00;99.90;;;;;;5132392;27;20668;-66
2021/04/13 02:25:41;;;;;;;23.40;14.45;;;1.00;99.90;;;;;;5132822;27;20206;-66
2021/04/13 02:28:09;;;;;;;24.73;12.60;;;0.90;99.90;;;;;;5132224;27;20283;-66
2021/04/13 02:30:39;;;;;;;21.45;13.60;;;0.90;99.90;;;;;;5132288;27;20206;-66
2021/04/13 02:33:13;;;;;;;24.95;14.25;;;0.90;99.90;;;;;;5134461;27;20628;-66
2021/04/13 02:35:40;;;;;;;23.88;11.95;;;0.90;99.90;;;;;;5135846;27;20199;-67
2021/04/13 02:38:12;;;;;;;21.85;12.48;;;0.90;99.90;;;;;;5136396;27;20305;-67
2021/04/13 02:40:47;;;;;;;22.70;12.20;;;0.90;99.90;;;;;;5135466;27;20225;-67
2021/04/13 02:43:22;;;;;;;25.75;13.00;;;0.90;99.90;;;;;;5136668;27;20208;-67
2021/04/13 02:45:51;;;;;;;23.05;12.63;;;0.80;99.90;;;;;;5135692;27;20736;-67
2021/04/13 02:48:23;;;;;;;25.17;12.73;;;0.80;99.90;;;;;;5135937;27;20255;-66
2021/04/13 02:50:51;;;;;;;20.15;12.20;;;0.80;99.90;;;;;;5133285;27;20565;-67
2021/04/13 02:53:23;;;;;;;21.02;12.60;;;0.80;99.90;;;;;;5136346;27;20269;-66
2021/04/13 02:55:52;;;;;;;27.77;13.13;;;0.80;99.90;;;;;;5135512;27;20282;-66
2021/04/13 02:58:20;;;;;;;23.63;12.15;;;0.80;99.90;;;;;;5135622;27;20301;-66
2021/04/13 03:00:49;;;;;;;22.92;12.82;;;0.80;99.90;;;;;;5135009;27;20303;-66
2021/04/13 03:03:20;;;;;;;19.98;10.77;;;0.80;99.90;;;;;;5130996;27;20287;-67
2021/04/13 03:05:51;;;;;;;23.30;12.25;;;0.80;99.90;;;;;;5135898;27;20630;-67
2021/04/13 03:08:18;;;;;;;19.83;10.82;;;0.80;99.90;;;;;;5136109;27;20195;-67
2021/04/13 03:10:48;;;;;;;19.27;11.73;;;0.70;99.90;;;;;;5135393;27;20295;-66
2021/04/13 03:13:18;;;;;;;20.75;11.57;;;0.80;99.90;;;;;;5135557;27;20680;-66
2021/04/13 03:15:52;;;;;;;22.13;12.73;;;0.80;99.90;;;;;;5135864;27;20218;-67
2021/04/13 03:18:24;;;;;;;22.48;11.90;;;0.70;99.90;;;;;;5136065;27;20228;-66
2021/04/13 03:20:53;;;;;;;24.17;12.10;;;0.70;99.90;;;;;;5134631;27;20307;-67
2021/04/13 03:23:24;;;;;;;20.80;11.77;;;0.70;99.90;;;;;;5135763;27;20204;-66
2021/04/13 03:25:54;;;;;;;24.95;11.30;;;0.70;99.90;;;;;;5134866;27;20200;-69
2021/04/13 03:28:25;;;;;;;20.80;11.60;;;0.70;99.90;;;;;;5135617;27;20622;-67
2021/04/13 03:30:53;;;;;;;21.23;11.10;;;0.70;99.90;;;;;;5134412;27;20320;-65
2021/04/13 03:33:23;;;;;;;21.20;12.95;;;0.80;99.90;;;;;;5135524;27;20280;-65
2021/04/13 03:35:50;;;;;;;19.70;11.32;;;0.90;99.90;;;;;;5135645;27;20384;-65
2021/04/13 03:38:21;;;;;;;20.67;10.90;;;1.00;99.90;;;;;;5135485;27;20291;-65
2021/04/13 03:40:50;;;;;;;23.08;12.65;;;1.10;99.90;;;;;;5134161;27;20227;-66
2021/04/13 03:43:21;;;;;;;22.30;13.38;;;1.30;99.90;;;;;;5134678;27;20196;-66
2021/04/13 03:45:52;;;;;;;24.92;12.57;;;1.40;99.90;;;;;;5129080;27;20199;-66
2021/04/13 03:48:22;;;;;;;20.92;10.38;;;1.50;99.90;;;;;;5128693;27;20255;-66
2021/04/13 03:50:59;;;;;;;26.77;14.60;;;1.50;99.90;;;;;;5134102;27;20354;-66
2021/04/13 03:53:31;;;;;;;22.60;13.73;;;1.60;99.90;;;;;;5134937;27;20200;-66
2021/04/13 03:56:00;;;;;;;27.58;13.73;;;1.60;99.90;;;;;;5131445;27;20313;-66
2021/04/13 03:58:31;;;;;;;21.65;12.52;;;1.70;99.90;;;;;;5134784;27;20284;-66
2021/04/13 04:00:59;;;;;;;26.73;13.68;;;1.70;99.90;;;;;;5133853;27;20706;-65
2021/04/13 04:03:25;;;;;;;20.95;11.35;;;1.80;99.90;;;;;;5134575;27;20635;-66
2021/04/13 04:05:55;;;;;;;21.90;11.75;;;1.80;99.90;;;;;;5129685;27;20206;-66
2021/04/13 04:08:30;;;;;;;19.73;12.35;;;1.70;99.90;;;;;;5134673;27;20253;-66
2021/04/13 04:10:58;;;;;;;18.90;10.70;;;1.60;99.90;;;;;;5127321;27;20214;-64
2021/04/13 04:13:31;;;;;;;21.05;11.90;;;1.50;99.90;;;;;;5134676;27;20337;-67
2021/04/13 04:16:07;;;;;;;18.60;10.68;;;1.50;99.90;;;;;;5134381;27;20213;-66
2021/04/13 04:18:39;;;;;;;22.88;12.27;;;1.40;99.90;;;;;;5135768;27;20279;-65
2021/04/13 04:21:31;;;;;;;23.35;10.57;;;1.40;99.90;;;;;;5133303;27;20270;-67
2021/04/13 04:24:01;;;;;;;25.67;11.57;;;1.50;99.90;;;;;;5115344;27;20222;-66
2021/04/13 04:26:32;;;;;;;22.15;12.30;;;1.50;99.90;;;;;;5132961;27;20235;-66
2021/04/13 04:29:20;;;;;;;21.25;12.02;;;1.40;99.90;;;;;;5133640;27;20194;-67
2021/04/13 04:31:48;;;;;;;20.77;10.40;;;1.40;99.90;;;;;;5134253;27;20736;-66
2021/04/13 04:34:50;;;;;;;20.40;11.85;;;1.30;99.90;;;;;;5135961;27;20277;-65
2021/04/13 04:37:26;;;;;;;21.27;11.57;;;1.30;99.90;;;;;;5147023;27;20292;-64
2021/04/13 04:40:47;;;;;;;24.33;11.55;;;1.20;99.90;;;;;;5114438;27;20196;-66
2021/04/13 04:43:15;;;;;;;22.45;12.82;;;1.10;99.90;;;;;;5125566;27;20205;-65
2021/04/13 04:45:53;;;;;;;23.00;13.40;;;1.20;99.90;;;;;;5133907;27;20292;-66
2021/04/13 04:48:33;;;;;;;21.50;10.63;;;1.20;99.90;;;;;;5134209;27;20586;-65
2021/04/13 04:51:02;;;;;;;21.00;10.65;;;1.30;99.90;;;;;;5132630;27;20201;-65
2021/04/13 04:53:31;;;;;;;18.80;10.18;;;1.30;99.90;;;;;;5133945;27;20284;-63
2021/04/13 04:55:59;;;;;;;11.68;6.05;;;1.30;99.90;;;;;;5131650;27;20442;-55
2021/04/13 04:58:26;;;;;;;12.20;6.57;;;6.40;99.90;;;;;;5133898;27;20339;-57
2021/04/13 05:00:53;;;;;;;13.77;8.00;;;7.70;99.90;;;;;;5133525;27;20475;-58
2021/04/13 05:03:21;;;;;;;14.53;7.83;;;8.20;99.90;;;;;;5133536;27;20450;-59
2021/04/13 05:05:49;;;;;;;14.60;7.70;;;8.60;99.90;;;;;;5132146;27;20448;-61
2021/04/13 05:08:15;;;;;;;15.73;7.30;;;8.60;99.90;;;;;;5133510;27;21005;-56
2021/04/13 05:10:42;;;;;;;14.77;8.17;;;8.60;99.90;;;;;;5123086;27;20531;-64
2021/04/13 05:13:08;;;;;;;16.03;7.90;;;8.00;99.90;;;;;;5133060;27;20480;-64
2021/04/13 05:15:35;;;;;;;13.90;7.73;;;7.10;99.90;;;;;;5132759;27;20474;-64
2021/04/13 05:18:01;;;;;;;16.20;8.00;;;6.50;99.90;;;;;;5131095;27;20484;-64
2021/04/13 05:20:28;;;;;;;20.90;9.03;;;5.80;99.90;;;;;;5133063;27;20999;-64
2021/04/13 05:22:55;;;;;;;15.90;8.37;;;5.10;99.90;;;;;;5133566;27;21062;-64
2021/04/13 05:25:22;;;;;;;19.43;9.10;;;4.70;99.90;;;;;;5133095;27;20947;-64
2021/04/13 05:27:49;;;;;;;20.53;9.90;;;4.40;99.90;;;;;;5133735;27;20515;-65
2021/04/13 05:30:17;;;;;;;18.60;9.60;;;4.20;99.90;;;;;;5127572;27;20548;-66
2021/04/13 05:32:43;;;;;;;18.20;9.90;;;4.00;99.90;;;;;;5133971;27;20440;-67
2021/04/13 05:35:11;;;;;;;19.00;9.87;;;3.90;99.90;;;;;;5151107;27;20454;-64
2021/04/13 05:37:38;;;;;;;20.20;10.60;;;3.80;99.90;;;;;;5121656;27;20816;-64
2021/04/13 05:40:10;;;;;;;17.67;10.53;;;3.80;99.90;;;;;;5132401;27;20562;-65
2021/04/13 05:42:37;;;;;;;17.90;10.07;;;3.70;99.90;;;;;;5133308;27;20441;-65
2021/04/13 05:45:06;;;;;;;20.23;10.00;;;3.80;99.90;;;;;;5132988;27;20942;-65
2021/04/13 05:47:35;;;;;;;18.40;11.93;;;3.90;99.90;;;;;;5133128;27;20493;-66
2021/04/13 05:50:03;;;;;;;22.40;11.70;;;4.00;99.90;;;;;;5129416;27;20505;-66
2021/04/13 05:52:29;;;;;;;22.90;10.93;;;4.00;99.90;;;;;;5131811;27;20429;-62
2021/04/13 05:54:56;;;;;;;19.90;10.83;;;4.00;99.90;;;;;;5124245;27;20543;-64
2021/04/13 05:57:29;;;;;;;22.00;10.93;;;3.90;99.90;;;;;;5131755;27;20475;-63
2021/04/13 05:59:57;;;;;;;22.20;12.30;;;4.00;99.90;;;;;;5129393;27;20861;-65
2021/04/13 06:02:24;;;;;;;20.60;11.73;;;4.10;99.90;;;;;;5131011;27;20471;-63
2021/04/13 06:04:52;;;;;;;22.00;11.67;;;4.10;99.90;;;;;;5131446;27;21033;-63
2021/04/13 06:07:18;;;;;;;19.23;9.30;;;4.10;99.90;;;;;;5135607;27;20463;-65
2021/04/13 06:09:45;;;;;;;23.90;11.53;;;4.30;99.90;;;;;;5139971;27;20552;-64
2021/04/13 06:12:14;;;;;;;19.53;9.60;;;4.50;99.90;;;;;;5137359;27;20535;-65
2021/04/13 06:14:43;;;;;;;21.97;10.60;;;4.50;99.90;;;;;;5135919;27;20854;-64
2021/04/13 06:17:10;;;;;;;19.60;9.37;;;4.60;99.90;;;;;;5137827;27;20508;-65
2021/04/13 06:19:36;;;;;;;23.37;10.17;;;4.70;99.90;;;;;;5139899;27;20603;-67
2021/04/13 06:22:03;;;;;;;20.20;9.30;;;4.70;99.90;;;;;;5136398;27;20568;-68
2021/04/13 06:24:30;;;;;;;18.67;10.30;;;4.70;99.90;;;;;;5134062;27;20449;-65
2021/04/13 06:26:57;;;;;;;19.63;10.20;;;4.60;99.90;;;;;;5132386;27;20541;-64
2021/04/13 06:29:23;;;;;;;17.50;9.37;;;4.40;99.90;;;;;;5134228;27;20862;-64
2021/04/13 06:31:55;;;;;;;21.53;10.37;;;4.40;99.90;;;;;;5134835;27;20496;-61
2021/04/13 06:34:22;;;;;;;24.47;10.53;;;4.20;99.90;;;;;;5136680;27;20560;-62
2021/04/13 06:36:48;;;;;;;24.77;10.67;;;4.10;99.90;;;;;;5134318;27;20505;-64
2021/04/13 06:39:15;;;;;;;21.27;10.53;;;4.20;99.90;;;;;;5134018;27;20445;-65
2021/04/13 06:41:54;;;;;;;22.40;10.57;;;4.20;99.90;;;;;;5135084;27;20471;-62
2021/04/13 06:44:45;;;;;;;19.10;10.00;;;4.30;99.90;;;;;;5139550;27;20436;-63
2021/04/13 06:47:18;;;;;;;23.33;9.60;;;4.40;99.90;;;;;;5149233;27;20436;-61
2021/04/13 06:50:08;;;;;;;29.20;10.10;;;4.40;99.90;;;;;;5134509;27;20488;-63
2021/04/13 06:52:46;;;;;;;21.53;9.10;;;4.50;99.90;;;;;;5145012;27;20440;-68
2021/04/13 06:55:19;;;;;;;20.00;9.30;;;4.40;99.90;;;;;;5136807;27;20470;-67
2021/04/13 06:57:55;;;;;;;16.10;7.63;;;4.50;99.90;;;;;;5147697;27;20841;-66
2021/04/13 07:00:47;;;;;;;19.27;9.63;;;4.50;99.90;;;;;;5136070;27;20570;-66
2021/04/13 07:03:21;;;;;;;20.90;8.60;;;4.70;99.90;;;;;;5148841;27;20505;-67
2021/04/13 07:05:53;;;;;;;24.70;9.23;;;4.80;99.90;;;;;;5137644;27;20450;-67
2021/04/13 07:08:32;;;;;;;20.03;8.80;;;5.00;99.90;;;;;;5146827;27;20548;-66
2021/04/13 07:11:03;;;;;;;19.27;7.83;;;5.10;99.90;;;;;;5133891;27;20453;-69
2021/04/13 07:13:42;;;;;;;14.13;6.80;;;5.50;99.90;;;;;;5132128;27;20510;-67
2021/04/13 07:16:16;;;;;;;23.00;7.00;;;6.10;99.90;;;;;;5134061;27;20427;-67
2021/04/13 07:18:48;;;;;;;23.67;8.03;;;6.30;99.90;;;;;;5137298;27;20530;-64
2021/04/13 07:21:23;;;;;;;14.60;8.02;;;6.60;99.90;;;;;;5147978;27;20564;-65
2021/04/13 07:23:55;;;;;;;17.07;7.07;;;6.90;99.90;;;;;;5135786;27;20218;-68
2021/04/13 07:26:31;;;;;;;14.47;6.70;;;7.30;99.90;;;;;;5127127;27;20492;-63
2021/04/13 07:29:04;;;;;;;14.40;5.53;;;7.60;99.90;;;;;;5133183;27;20888;-65
2021/04/13 07:31:39;;;;;;;14.23;5.57;;;7.90;99.90;;;;;;5130862;27;20515;-64
2021/04/13 07:34:07;;;;;;;11.27;5.57;;;8.10;99.90;;;;;;5134389;27;20448;-64
2021/04/13 07:36:41;;;;;;;16.43;6.03;;;8.20;99.90;;;;;;5134576;27;20541;-63
2021/04/13 07:39:08;;;;;;;14.63;5.77;;;8.40;99.90;;;;;;5136934;27;20540;-65
2021/04/13 07:41:41;;;;;;;14.77;4.50;;;8.90;99.90;;;;;;5131924;27;20514;-63
2021/04/13 07:44:12;;;;;;;11.90;4.50;;;9.20;99.90;;;;;;5148624;27;20494;-65
2021/04/13 07:46:46;;;;;;;14.13;5.27;;;9.70;99.90;;;;;;5150591;27;20832;-65
2021/04/13 07:49:16;;;;;;;14.23;4.67;;;10.50;99.90;;;;;;5149587;27;20523;-65
2021/04/13 07:54:51;;;;;;;15.37;4.10;;;11.00;99.90;;;;;;5136469;22;20842;-64
2021/04/13 07:57:23;;;;;;;13.10;3.20;;;10.30;99.90;;;;;;5113405;27;20513;-65
2021/04/13 08:00:04;;;;;;;21.40;3.13;;;10.30;99.90;;;;;;5129077;27;20950;-61
2021/04/13 08:02:31;;;;;;;20.93;3.93;;;9.70;99.90;;;;;;5125627;27;20442;-62
2021/04/13 08:05:00;;;;;;;12.27;3.53;;;9.20;99.90;;;;;;5114003;28;20460;-65
2021/04/13 08:07:31;;;;;;;13.93;3.10;;;8.80;99.90;;;;;;5131276;27;20527;-64
2021/04/13 08:10:18;;;;;;;13.30;3.00;;;8.80;99.90;;;;;;5134397;27;20942;-63
2021/04/13 08:12:54;;;;;;;15.73;2.90;;;8.80;99.90;;;;;;5131949;27;20857;-69
2021/04/13 08:15:36;;;;;;;10.93;3.40;;;9.00;99.90;;;;;;5133908;27;20444;-65
2021/04/13 08:18:09;;;;;;;9.60;2.60;;;9.30;99.90;;;;;;5113485;28;20449;-66
2021/04/13 08:20:43;;;;;;;11.57;2.53;;;9.40;99.90;;;;;;5133519;27;20472;-66
2021/04/13 08:23:12;;;;;;;13.10;3.30;;;9.40;99.90;;;;;;5133992;27;20444;-63
2021/04/13 08:25:45;;;;;;;13.50;3.97;;;9.10;99.90;;;;;;5113412;28;20874;-63
2021/04/13 08:28:39;;;;;;;11.73;2.77;;;9.10;99.90;;;;;;5113808;28;20528;-65
2021/04/13 08:34:32;;;;;;;15.30;4.67;;;9.20;99.90;;;;;;5113652;28;20534;-65
2021/04/13 08:37:10;;;;;;;13.00;3.20;;;9.10;99.90;;;;;;5117335;27;20580;-63
2021/04/13 08:39:42;;;;;;;8.67;2.20;;;9.20;99.90;;;;;;5133481;27;20866;-63
2021/04/13 08:42:23;;;;;;;12.00;2.53;;;10.50;99.90;;;;;;5132941;27;20534;-63
2021/04/13 08:44:57;;;;;;;14.60;2.97;;;12.20;99.90;;;;;;5116638;27;20449;-64
2021/04/13 08:47:36;;;;;;;9.90;2.33;;;13.40;99.90;;;;;;5119259;27;21012;-61
2021/04/13 08:50:26;;;;;;;12.40;2.47;;;13.00;99.90;;;;;;5133760;27;20459;-65
2021/04/13 08:52:55;;;;;;;7.33;2.03;;;12.40;99.90;;;;;;5132662;27;20463;-65
2021/04/13 08:55:29;;;;;;;9.47;2.03;;;12.00;99.90;;;;;;5113344;27;20615;-64
2021/04/13 08:58:06;;;;;;;7.80;1.97;;;13.10;99.90;;;;;;5122325;27;20493;-63
2021/04/13 09:00:39;;;;;;;9.73;2.50;;;15.10;99.90;;;;;;5133595;27;20565;-61
2021/04/13 09:03:08;;;;;;;8.20;1.80;;;15.60;99.90;;;;;;5126188;27;21001;-64
2021/04/13 09:05:37;;;;;;;7.27;1.80;;;15.20;99.90;;;;;;5115562;27;21080;-63
2021/04/13 09:08:11;;;;;;;6.50;1.50;;;15.20;99.90;;;;;;5116938;27;20458;-64
2021/04/13 09:10:42;;;;;;;10.73;1.87;;;15.60;99.90;;;;;;5127725;27;20444;-63
2021/04/13 09:13:28;;;;;;;7.97;2.10;;;14.80;99.90;;;;;;5130022;27;20973;-63
2021/04/13 09:16:00;;;;;;;13.03;2.20;;;13.10;99.90;;;;;;5119732;27;20962;-62
2021/04/13 09:18:35;;;;;;;8.80;1.77;;;12.90;99.90;;;;;;5126200;27;20544;-67
2021/04/13 09:21:07;;;;;;;8.37;1.80;;;15.00;99.90;;;;;;5124598;27;20479;-61
2021/04/13 09:23:42;;;;;;;6.93;2.43;;;17.60;99.80;;;;;;5124373;27;20942;-63
2021/04/13 09:26:21;;;;;;;11.90;2.50;;;18.90;98.90;;;;;;5122258;27;20451;-63
2021/04/13 09:28:52;;;;;;;8.03;2.63;;;16.70;94.80;;;;;;5121813;27;20445;-62
2021/04/13 09:31:28;;;;;;;9.97;1.97;;;15.40;94.10;;;;;;5113259;27;20460;-64
2021/04/13 09:34:08;;;;;;;7.67;1.73;;;13.70;94.50;;;;;;5124204;27;20540;-67
2021/04/13 09:36:46;;;;;;;9.43;2.23;;;12.60;99.90;;;;;;5120191;27;20878;-65
2021/04/13 09:39:48;;;;;;;5.57;1.60;;;11.90;99.90;;;;;;5125493;27;20593;-62
2021/04/13 09:42:39;;;;;;;9.80;1.60;;;11.10;99.90;;;;;;5121874;27;20515;-64
2021/04/13 09:45:24;;;;;;;6.10;1.77;;;11.50;99.90;;;;;;5121761;27;20455;-63
2021/04/13 09:48:15;;;;;;;9.90;2.00;;;15.70;99.90;;;;;;5119173;27;20450;-62
2021/04/13 09:50:45;;;;;;;12.13;2.00;;;19.00;95.20;;;;;;5121803;27;20441;-61
2021/04/13 09:53:42;;;;;;;9.03;1.77;;;18.80;89.60;;;;;;5123892;27;20539;-62
2021/04/13 09:56:27;;;;;;;6.23;1.80;;;16.80;88.90;;;;;;5116372;28;20536;-61
2021/04/13 09:59:13;;;;;;;9.67;2.00;;;17.90;91.30;;;;;;5126436;27;20871;-61
2021/04/13 10:01:52;;;;;;;8.83;1.93;;;17.60;88.80;;;;;;5122237;27;20568;-62
2021/04/13 10:04:30;;;;;;;6.80;1.73;;;17.60;88.50;;;;;;5125159;28;21002;-60
2021/04/13 10:07:16;;;;;;;7.70;1.93;;;18.60;84.30;;;;;;5122886;28;20531;-63
2021/04/13 10:09:45;;;;;;;11.47;3.30;;;20.30;83.30;;;;;;5115968;28;20506;-62
2021/04/13 10:12:50;;;;;;;9.90;2.40;;;19.90;77.30;;;;;;5127928;28;20455;-52
2021/04/13 10:15:28;;;;;;;7.40;2.00;;;20.80;93.50;;;;;;5095833;27;20444;-48
2021/04/13 10:18:23;;;;;;;9.10;2.50;;;23.80;91.40;;;;;;5122197;28;20841;-52
2021/04/13 10:20:57;;;;;;;7.27;2.10;;;23.40;64.20;;;;;;5121945;28;20834;-52
2021/04/13 10:23:59;;;;;;;7.67;2.07;;;23.50;61.10;;;;;;5123102;28;20536;-61
2021/04/13 10:26:54;;;;;;;8.48;2.40;;;25.00;59.80;;;;;;5123953;28;20445;-61
2021/04/13 10:30:11;;;;;;;7.60;2.07;;;23.80;53.30;;;;;;5121171;28;20574;-61
2021/04/13 10:33:06;;;;;;;8.60;1.27;;;23.10;58.10;;;;;;5076981;28;20533;-62
2021/04/13 10:36:11;;;;;;;4.87;1.20;;;23.70;49.20;;;;;;5119601;28;20445;-65
2021/04/13 10:39:28;;;;;;;8.30;1.77;;;25.50;49.60;;;;;;5123435;28;20490;-61
2021/04/13 10:42:34;;;;;;;5.73;1.33;;;26.50;48.20;;;;;;5061601;28;20593;-62
2021/04/13 10:45:31;;;;;;;8.30;1.43;;;22.90;48.20;;;;;;5124988;28;20479;-61
2021/04/13 10:48:41;;;;;;;6.10;1.50;;;21.00;50.20;;;;;;5123955;28;20480;-61
2021/04/13 10:51:31;;;;;;;6.07;1.33;;;17.80;50.10;;;;;;5119714;28;20488;-61
2021/04/13 10:54:42;;;;;;;5.27;1.50;;;16.00;49.70;;;;;;5118148;27;20826;-61
2021/04/13 10:57:30;;;;;;;5.60;1.17;;;16.20;51.80;;;;;;5091861;27;20493;-62
2021/04/13 11:00:22;;;;;;;4.60;1.30;;;20.30;53.20;;;;;;5122559;27;20531;-62
2021/04/13 11:03:18;;;;;;;5.90;1.70;;;23.10;50.20;;;;;;5109463;27;20516;-61
2021/04/13 11:06:16;;;;;;;6.70;1.10;;;22.90;47.90;;;;;;5119404;27;20449;-62
2021/04/13 11:09:14;;;;;;;7.63;1.80;;;21.80;49.80;;;;;;5127566;27;20444;-60
2021/04/13 11:12:28;;;;;;;6.63;1.57;;;20.20;49.20;;;;;;5124255;27;20475;-62
2021/04/13 11:15:21;;;;;;;6.80;1.30;;;18.00;51.00;;;;;;5121684;27;20532;-62
2021/04/13 11:17:58;;;;;;;9.10;1.87;;;16.20;52.80;;;;;;5125977;27;20543;-64
2021/04/13 11:20:43;;;;;;;7.23;1.47;;;15.20;53.50;;;;;;5128925;27;20536;-65
2021/04/13 11:23:55;;;;;;;5.20;1.20;;;13.90;54.20;;;;;;5134581;27;20476;-62
2021/04/13 11:26:51;;;;;;;8.83;1.30;;;15.10;56.30;;;;;;5123796;27;20627;-62
2021/04/13 11:30:15;;;;;;;17.20;1.90;;;19.30;54.10;;;;;;5128183;27;20447;-61
2021/04/13 11:33:09;;;;;;;5.83;1.10;;;22.80;49.60;;;;;;5121118;27;20474;-61
2021/04/13 11:35:38;;;;;;;4.43;1.40;;;23.30;48.80;;;;;;5126442;27;20481;-65
2021/04/13 11:38:33;;;;;;;5.37;1.40;;;25.70;47.90;;;;;;5112687;27;20476;-61
2021/04/13 11:41:47;;;;;;;5.90;1.63;;;25.20;47.50;;;;;;5102656;28;20487;-60
2021/04/13 11:44:20;;;;;;;6.03;1.40;;;24.00;48.60;;;;;;5110547;28;20524;-65
2021/04/13 11:46:56;;;;;;;7.13;1.50;;;23.80;48.30;;;;;;5095187;28;20525;-62
2021/04/13 11:49:34;;;;;;;6.57;1.90;;;24.30;44.60;;;;;;5094149;28;20933;-61
2021/04/13 11:52:09;;;;;;;6.30;1.50;;;25.60;43.50;;;;;;5108042;28;20557;-64
2021/04/13 11:54:40;;;;;;;5.87;1.47;;;27.60;44.40;;;;;;5097737;28;20967;-64
2021/04/13 11:57:14;;;;;;;6.00;1.40;;;29.00;41.70;;;;;;5104578;28;20507;-65
2021/04/13 11:59:41;;;;;;;6.60;1.57;;;29.00;40.90;;;;;;5108071;28;20552;-64
2021/04/13 12:02:26;;;;;;;4.53;1.07;;;29.90;41.40;;;;;;5113113;28;20819;-65
2021/04/13 12:04:55;;;;;;;4.47;1.20;;;30.70;37.70;;;;;;5100529;28;20450;-62
2021/04/13 12:07:49;;;;;;;4.57;1.20;;;29.10;37.70;;;;;;5093842;28;20839;-64
2021/04/13 12:10:54;;;;;;;6.63;1.37;;;25.50;37.40;;;;;;5080746;28;20458;-64
2021/04/13 12:13:40;;;;;;;6.03;1.40;;;22.50;39.20;;;;;;5099504;28;20791;-63
2021/04/13 12:16:09;;;;;;;4.47;0.97;;;19.60;42.50;;;;;;5102348;28;20894;-63
2021/04/13 12:19:09;;;;;;;7.30;1.77;;;17.80;41.50;;;;;;5098130;28;20442;-64
2021/04/13 12:21:57;;;;;;;6.40;1.30;;;19.20;45.90;;;;;;5110071;28;20479;-63
2021/04/13 12:24:50;;;;;;;5.50;1.60;;;22.80;46.60;;;;;;5100495;28;20468;-62
2021/04/13 12:27:46;;;;;;;6.33;1.40;;;25.00;45.50;;;;;;5097442;28;20442;-64
2021/04/13 12:30:56;;;;;;;4.43;1.30;;;26.50;42.20;;;;;;5099209;28;20986;-64
2021/04/13 12:33:56;;;;;;;4.00;1.10;;;27.50;40.00;;;;;;5097898;28;20446;-63
2021/04/13 12:36:50;;;;;;;6.90;1.60;;;27.90;40.00;;;;;;5103245;28;20983;-64
2021/04/13 12:39:48;;;;;;;4.23;1.20;;;28.00;38.20;;;;;;5099548;28;20533;-64
2021/04/13 12:42:36;;;;;;;4.50;1.07;;;27.20;36.90;;;;;;5098607;28;20819;-64
2021/04/13 12:45:22;;;;;;;3.93;1.07;;;28.10;35.50;;;;;;5094847;28;20532;-67
2021/04/13 12:47:51;;;;;;;5.37;1.40;;;28.10;37.50;;;;;;5098438;28;21230;-63
2021/04/13 12:50:24;;;;;;;5.20;1.30;;;24.50;36.60;;;;;;5105715;28;21018;-67
2021/04/13 12:52:51;;;;;;;5.73;1.10;;;22.40;38.20;;;;;;5092814;27;20514;-65
2021/04/13 12:55:18;;;;;;;5.80;1.10;;;20.40;40.40;;;;;;5109812;27;20887;-64
2021/04/13 12:57:53;;;;;;;5.73;1.23;;;18.70;40.60;;;;;;5103240;27;20453;-65
2021/04/13 13:00:22;;;;;;;3.77;0.90;;;20.70;43.30;;;;;;5106286;27;20532;-62
2021/04/13 13:02:50;;;;;;;4.80;1.10;;;20.60;37.50;;;;;;5097645;28;20442;-63
2021/04/13 13:05:21;;;;;;;5.10;1.10;;;20.90;39.00;;;;;;5098417;28;20480;-65
2021/04/13 13:07:57;;;;;;;4.57;1.10;;;20.70;40.30;;;;;;5101327;28;20648;-67
2021/04/13 13:10:29;;;;;;;7.03;1.00;;;19.70;40.10;;;;;;5100179;28;20473;-63
2021/04/13 13:13:03;;;;;;;4.57;1.00;;;18.50;39.00;;;;;;5111523;28;21022;-64
2021/04/13 13:15:34;;;;;;;5.63;1.20;;;17.70;39.80;;;;;;5105429;28;20446;-63
2021/04/13 13:18:15;;;;;;;6.87;1.07;;;16.80;41.70;;;;;;5095464;28;20461;-63
2021/04/13 13:20:42;;;;;;;4.57;0.90;;;18.90;42.30;;;;;;5098266;27;20453;-64
2021/04/13 13:23:25;;;;;;;4.10;1.00;;;21.90;40.80;;;;;;5104291;28;20478;-64
2021/04/13 13:25:51;;;;;;;6.67;1.87;;;23.60;37.60;;;;;;5106903;28;20445;-59
2021/04/13 13:28:22;;;;;;;6.03;1.17;;;26.50;52.10;;;;;;5112693;28;20900;-64
2021/04/13 13:30:51;;;;;;;4.40;1.00;;;27.50;38.60;;;;;;5106450;28;20845;-64
2021/04/13 13:33:18;;;;;;;9.00;2.57;;;28.40;34.10;;;;;;5092234;28;20442;-64
2021/04/13 13:35:45;;;;;;;4.70;1.27;;;28.10;37.60;;;;;;5101100;28;20477;-64